OIT weather

Oita Airport
Oita, Ōita Prefecture, Japan

Public forecast

Using degrees Celsius for public forecast. Weather courtesy of forecast.io.

METAR (pilot weather report)

Retrieved 2019/05/20 00:35 UTC (12 minutes ago):

RJFO 200035Z 04003KT 010V080 2500 -SHRA BR FEW002 SCT005 BKN006 17/17 Q1006 RMK 1ST002 4ST005 6ST006 A2972

TAF (pilot weather forecast)

Forecast is more than 12 hours old.

Retrieved 2019/05/19 00:00 UTC (1 day ago):

TAF RJFO 192308Z 2000/2106 13011KT 6000 -SHRA FEW005 SCT010 BKN015 TEMPO 2000/2003 1500 SHRA BR FEW003 BKN005 BKN008 TEMPO 2003/2006 3000 SHRA BR FEW003 BKN005 BKN008 TEMPO 2006/2010 4000 -SHRA BR FEW003 SCT005 BKN008 BECMG 2007/2009 30005KT